Bulk Indonesia — 3FFO6 — position and weather

sailwx.info

Track history (hours):
 
Tides and Currents Weather Stations Pressure Air Temp Water Temp Dewpoint Dewpoint Depression Visibility Wind Speed Wind Dir Waves Ship Positions

Bulk Indonesia

Last reported at 2018-Jan-28 13:22 UTC. Time now 2018-Feb-24 06:39 UTC.
Position N 25°28' W 079°30'.
Warning: this ship's position is 26 days out of date.

Length 235 m; draft 7.9 m.

Type: Cargo ship. MMSI: 371990000.

Date/timePositionNaut miles runAvg speedWind from/ knotsBaromVisibWave heightAir tempDewpointWater temp
2018-Jan-28 13:22N 25°28' W 079°30'411.8
2018-Jan-28 13:00N 25°32' W 079°29'1811.7
2018-Jan-28 11:27N 25°49' W 079°22'2811.7
2018-Jan-28 09:05N 26°16' W 079°14'  
2018-Jan-20 01:06N 33°47' W 031°40'112.8
2018-Jan-20 01:00N 33°48' W 031°39'7212.9
2018-Jan-19 19:26N 34°02' W 030°14'1513.0
2018-Jan-19 18:15N 34°05' W 029°56'3212.7
2018-Jan-19 15:45N 34°12' W 029°19'10212.7
2018-Jan-19 07:44N 34°32' W 027°18'912.8
2018-Jan-19 07:03N 34°34' W 027°07'012.4
2018-Jan-19 07:01N 34°34' W 027°07'812.4
2018-Jan-19 06:20N 34°36' W 026°57'712.5
2018-Jan-19 05:44N 34°37' W 026°48'1812.8
2018-Jan-19 04:19N 34°41' W 026°26'812.8
2018-Jan-19 03:43N 34°42' W 026°17'312.6
2018-Jan-19 03:30N 34°43' W 026°13'712.8
2018-Jan-19 02:58N 34°44' W 026°05'612.7
2018-Jan-19 02:30N 34°45' W 025°58'712.7
2018-Jan-19 01:59N 34°46' W 025°50'612.5
2018-Jan-19 01:30N 34°48' W 025°43'713.1
2018-Jan-19 01:00N 34°49' W 025°36'612.9
2018-Jan-19 00:30N 34°50' W 025°28'612.8
2018-Jan-19 00:00N 34°52' W 025°20'612.9
2018-Jan-18 23:30N 34°53' W 025°13'1313.1
2018-Jan-18 22:29N 34°55' W 024°56'612.7
2018-Jan-18 22:00N 34°57' W 024°49'712.8
2018-Jan-18 21:29N 34°58' W 024°41'612.8
2018-Jan-18 21:00N 34°59' W 024°34'712.7
2018-Jan-18 20:28N 35°01' W 024°26'612.7
2018-Jan-18 20:00N 35°02' W 024°19'712.5
2018-Jan-18 19:28N 35°04' W 024°11'712.8
2018-Jan-18 18:57N 35°05' W 024°03'612.8
2018-Jan-18 18:27N 35°06' W 023°55'612.6
2018-Jan-18 18:00N 35°07' W 023°49'1112.9
2018-Jan-18 17:11N 35°09' W 023°36'313.1
2018-Jan-18 16:55N 35°10' W 023°32'712.9
2018-Jan-18 16:24N 35°11' W 023°24'512.8
2018-Jan-18 15:59N 35°12' W 023°17'813.2
2018-Jan-18 15:25N 35°14' W 023°08'712.9
2018-Jan-18 14:55N 35°15' W 023°00'512.9
2018-Jan-18 14:30N 35°16' W 022°54'713.1
2018-Jan-18 14:01N 35°17' W 022°46'  
Track history (hours):
 
Tides and Currents Weather Stations Pressure Air Temp Water Temp Dewpoint Dewpoint Depression Visibility Wind Speed Wind Dir Waves Ship Positions

Bulk Indonesia

Last reported at 2018-Jan-28 13:22 UTC. Time now 2018-Feb-24 06:39 UTC.
Position N 25°28' W 079°30'.
Warning: this ship's position is 26 days out of date.

Length 235 m; draft 7.9 m.

Type: Cargo ship. MMSI: 371990000.

Date/timePositionNaut miles runAvg speedWind from/ knotsBaromVisibWave heightAir tempDewpointWater temp
2018-Jan-28 13:22N 25°28' W 079°30'411.8
2018-Jan-28 13:00N 25°32' W 079°29'1811.7
2018-Jan-28 11:27N 25°49' W 079°22'2811.7
2018-Jan-28 09:05N 26°16' W 079°14'  
2018-Jan-20 01:06N 33°47' W 031°40'112.8
2018-Jan-20 01:00N 33°48' W 031°39'7212.9
2018-Jan-19 19:26N 34°02' W 030°14'1513.0
2018-Jan-19 18:15N 34°05' W 029°56'3212.7
2018-Jan-19 15:45N 34°12' W 029°19'10212.7
2018-Jan-19 07:44N 34°32' W 027°18'912.8
2018-Jan-19 07:03N 34°34' W 027°07'012.4
2018-Jan-19 07:01N 34°34' W 027°07'812.4
2018-Jan-19 06:20N 34°36' W 026°57'712.5
2018-Jan-19 05:44N 34°37' W 026°48'1812.8
2018-Jan-19 04:19N 34°41' W 026°26'812.8
2018-Jan-19 03:43N 34°42' W 026°17'312.6
2018-Jan-19 03:30N 34°43' W 026°13'712.8
2018-Jan-19 02:58N 34°44' W 026°05'612.7
2018-Jan-19 02:30N 34°45' W 025°58'712.7
2018-Jan-19 01:59N 34°46' W 025°50'612.5
2018-Jan-19 01:30N 34°48' W 025°43'713.1
2018-Jan-19 01:00N 34°49' W 025°36'612.9
2018-Jan-19 00:30N 34°50' W 025°28'612.8
2018-Jan-19 00:00N 34°52' W 025°20'612.9
2018-Jan-18 23:30N 34°53' W 025°13'1313.1
2018-Jan-18 22:29N 34°55' W 024°56'612.7
2018-Jan-18 22:00N 34°57' W 024°49'712.8
2018-Jan-18 21:29N 34°58' W 024°41'612.8
2018-Jan-18 21:00N 34°59' W 024°34'712.7
2018-Jan-18 20:28N 35°01' W 024°26'612.7
2018-Jan-18 20:00N 35°02' W 024°19'712.5
2018-Jan-18 19:28N 35°04' W 024°11'712.8
2018-Jan-18 18:57N 35°05' W 024°03'612.8
2018-Jan-18 18:27N 35°06' W 023°55'612.6
2018-Jan-18 18:00N 35°07' W 023°49'1112.9
2018-Jan-18 17:11N 35°09' W 023°36'313.1
2018-Jan-18 16:55N 35°10' W 023°32'712.9
2018-Jan-18 16:24N 35°11' W 023°24'512.8
2018-Jan-18 15:59N 35°12' W 023°17'813.2
2018-Jan-18 15:25N 35°14' W 023°08'712.9
2018-Jan-18 14:55N 35°15' W 023°00'512.9
2018-Jan-18 14:30N 35°16' W 022°54'713.1
2018-Jan-18 14:01N 35°17' W 022°46'  

Dump ship's entire track history